createdAt,value
2022-07-27T00:00:57.876Z,27.10
2022-07-27T00:03:24.954Z,26.90
2022-07-27T00:05:52.484Z,27.30
2022-07-27T00:08:20.801Z,27.60
2022-07-27T00:10:48.048Z,28.40
2022-07-27T00:13:15.376Z,28.70
2022-07-27T00:15:42.600Z,28.70
2022-07-27T00:18:09.816Z,28.00
2022-07-27T00:20:37.450Z,28.10
2022-07-27T00:23:04.441Z,28.20
2022-07-27T00:25:31.500Z,28.30
2022-07-27T00:27:58.583Z,28.40
2022-07-27T00:30:26.444Z,28.50
2022-07-27T00:32:53.413Z,28.40
2022-07-27T00:35:20.459Z,28.10
2022-07-27T00:37:47.459Z,27.60
2022-07-27T00:40:14.889Z,27.60
2022-07-27T00:42:42.023Z,27.00
2022-07-27T00:45:09.418Z,27.20
2022-07-27T00:47:36.453Z,27.30
2022-07-27T00:50:04.256Z,27.00
2022-07-27T00:52:31.624Z,27.40
2022-07-27T00:54:59.654Z,26.90
2022-07-27T00:57:30.647Z,27.00
2022-07-27T00:59:57.702Z,27.00
2022-07-27T01:02:26.455Z,26.90
2022-07-27T01:04:56.901Z,26.90
2022-07-27T01:07:26.159Z,26.70
2022-07-27T01:09:58.942Z,26.70
2022-07-27T01:12:30.352Z,26.90
2022-07-27T01:14:58.455Z,26.90
2022-07-27T01:17:27.197Z,26.70
2022-07-27T01:19:54.366Z,27.30
2022-07-27T01:22:21.339Z,27.60
2022-07-27T01:24:50.426Z,27.80
2022-07-27T01:27:17.577Z,27.70
2022-07-27T01:29:44.580Z,27.50
2022-07-27T01:32:11.635Z,27.40
2022-07-27T01:34:38.881Z,27.60
2022-07-27T01:37:06.379Z,27.40
2022-07-27T01:39:33.711Z,26.80
2022-07-27T01:42:01.320Z,27.20
2022-07-27T01:44:28.341Z,27.60
2022-07-27T01:46:55.454Z,27.80
2022-07-27T01:49:22.646Z,27.30
2022-07-27T01:51:49.759Z,26.90
2022-07-27T01:54:17.103Z,26.50
2022-07-27T01:56:44.133Z,26.70
2022-07-27T01:59:16.193Z,26.70
2022-07-27T02:01:44.293Z,26.70
2022-07-27T02:04:11.455Z,27.10
2022-07-27T02:06:38.474Z,27.10
2022-07-27T02:09:05.619Z,27.30
2022-07-27T02:11:51.279Z,27.60
2022-07-27T02:14:18.290Z,27.80
2022-07-27T02:16:48.454Z,28.50
2022-07-27T02:19:18.375Z,28.90
2022-07-27T02:21:45.633Z,28.90
2022-07-27T02:24:13.063Z,28.90
2022-07-27T02:26:40.017Z,29.10
2022-07-27T02:29:07.212Z,28.80
2022-07-27T02:31:34.205Z,28.80
2022-07-27T02:34:01.508Z,28.20
2022-07-27T02:36:29.558Z,27.70
2022-07-27T02:38:57.485Z,28.20
2022-07-27T02:41:24.677Z,28.40
2022-07-27T02:43:51.883Z,28.80
2022-07-27T02:46:18.950Z,29.40
2022-07-27T02:48:46.244Z,28.90
2022-07-27T02:51:15.299Z,28.40
2022-07-27T02:53:42.493Z,27.60
2022-07-27T02:56:09.614Z,27.60
2022-07-27T02:58:37.630Z,28.00
2022-07-27T03:01:05.651Z,28.30
2022-07-27T03:03:36.752Z,28.60
2022-07-27T03:06:08.312Z,29.00
2022-07-27T03:08:38.589Z,29.50
2022-07-27T03:11:06.009Z,29.50
2022-07-27T03:13:33.025Z,30.00
2022-07-27T03:16:00.120Z,30.00
2022-07-27T03:18:27.238Z,30.90
2022-07-27T03:20:55.536Z,30.80
2022-07-27T03:23:22.559Z,30.80
2022-07-27T03:25:49.493Z,30.90
2022-07-27T03:28:16.757Z,30.90
2022-07-27T03:30:44.056Z,30.60
2022-07-27T03:33:11.157Z,30.10
2022-07-27T03:35:38.169Z,30.60
2022-07-27T03:38:05.274Z,30.50
2022-07-27T03:40:33.710Z,30.50
2022-07-27T03:43:01.266Z,30.50
2022-07-27T03:45:28.343Z,30.50
2022-07-27T03:47:55.414Z,30.70
2022-07-27T03:50:22.966Z,30.80
2022-07-27T03:52:51.083Z,30.90
2022-07-27T03:55:19.550Z,30.90
2022-07-27T03:57:46.627Z,30.60
2022-07-27T04:00:14.396Z,30.20
2022-07-27T04:02:42.301Z,30.60
2022-07-27T04:05:10.284Z,30.00
2022-07-27T04:07:37.877Z,29.80
2022-07-27T04:10:06.471Z,29.50
2022-07-27T04:12:38.893Z,29.00
2022-07-27T04:15:07.597Z,28.80
2022-07-27T04:17:54.251Z,28.70
2022-07-27T04:20:21.707Z,28.50
2022-07-27T04:22:48.953Z,29.00
2022-07-27T04:25:16.117Z,29.40
2022-07-27T04:27:43.107Z,29.90
2022-07-27T04:30:10.522Z,29.60
2022-07-27T04:32:38.163Z,30.00
2022-07-27T04:35:06.266Z,30.90
2022-07-27T04:37:33.746Z,31.30
2022-07-27T04:40:01.186Z,31.20
2022-07-27T04:42:30.192Z,30.90
2022-07-27T04:44:57.608Z,31.00
2022-07-27T04:47:24.570Z,30.30
2022-07-27T04:49:51.669Z,30.10
2022-07-27T04:52:18.685Z,30.10
2022-07-27T04:54:46.028Z,30.60
2022-07-27T04:57:13.111Z,29.90
2022-07-27T04:59:40.064Z,29.90
2022-07-27T05:02:07.026Z,29.90
2022-07-27T05:04:35.626Z,30.00
2022-07-27T05:07:03.062Z,29.90
2022-07-27T05:09:30.014Z,30.00
2022-07-27T05:11:57.015Z,29.50
2022-07-27T05:14:24.065Z,29.20
2022-07-27T05:16:51.557Z,29.10
2022-07-27T05:19:18.694Z,29.40
2022-07-27T05:21:45.685Z,29.30
2022-07-27T05:24:12.639Z,29.60
2022-07-27T05:26:39.688Z,28.50
2022-07-27T05:29:06.642Z,28.40
2022-07-27T05:31:33.639Z,28.80
2022-07-27T05:34:00.728Z,28.90
2022-07-27T05:36:27.703Z,29.10
2022-07-27T05:38:54.716Z,29.40
2022-07-27T05:41:26.010Z,29.60
2022-07-27T05:43:57.264Z,29.70
2022-07-27T05:46:24.904Z,29.00
2022-07-27T05:48:53.531Z,29.10
2022-07-27T05:51:20.572Z,29.20
2022-07-27T05:53:47.536Z,29.30
2022-07-27T05:56:14.535Z,29.50
2022-07-27T05:58:41.524Z,29.60
2022-07-27T06:01:08.541Z,29.80
2022-07-27T06:03:36.998Z,29.60
2022-07-27T06:06:22.440Z,29.00
2022-07-27T06:08:49.469Z,29.00
2022-07-27T06:11:16.723Z,29.40
2022-07-27T06:13:43.962Z,29.40
2022-07-27T06:16:11.517Z,28.80
2022-07-27T06:18:38.623Z,29.00
2022-07-27T06:21:05.808Z,28.70
2022-07-27T06:23:32.918Z,28.20
2022-07-27T06:26:00.190Z,27.80
2022-07-27T06:28:27.149Z,27.80
2022-07-27T06:30:54.221Z,27.30
2022-07-27T06:33:31.240Z,27.40
2022-07-27T06:35:59.854Z,26.90
2022-07-27T06:38:29.612Z,26.90
2022-07-27T06:40:57.114Z,26.80
2022-07-27T06:43:26.437Z,26.40
2022-07-27T06:45:54.597Z,27.20
2022-07-27T06:48:22.556Z,27.80
2022-07-27T06:50:51.393Z,27.90
2022-07-27T06:53:21.014Z,28.50
2022-07-27T06:55:48.799Z,28.30
2022-07-27T06:58:16.056Z,28.20
2022-07-27T07:00:43.853Z,27.70
2022-07-27T07:03:11.554Z,27.80
2022-07-27T07:05:44.590Z,28.00
2022-07-27T07:08:12.194Z,28.00
2022-07-27T07:10:44.264Z,28.00
2022-07-27T07:13:12.147Z,27.30
2022-07-27T07:15:41.039Z,27.50
2022-07-27T07:18:08.914Z,27.10
2022-07-27T07:20:36.784Z,27.00
2022-07-27T07:23:04.547Z,27.00
2022-07-27T07:25:32.960Z,26.80
2022-07-27T07:28:00.423Z,27.10
2022-07-27T07:30:28.163Z,26.70
2022-07-27T07:32:55.281Z,26.10
2022-07-27T07:35:22.372Z,25.80
2022-07-27T07:37:50.357Z,25.60
2022-07-27T07:40:42.779Z,25.40
2022-07-27T07:43:06.027Z,24.90
2022-07-27T07:45:38.295Z,24.40
2022-07-27T07:48:17.304Z,25.40
2022-07-27T07:50:44.309Z,26.10
2022-07-27T07:53:11.304Z,26.50
2022-07-27T07:55:41.313Z,26.20
2022-07-27T07:58:08.468Z,25.70
2022-07-27T08:00:35.874Z,25.80
2022-07-27T08:03:03.016Z,25.00
2022-07-27T08:05:33.097Z,24.60
2022-07-27T08:08:00.201Z,24.10
2022-07-27T08:10:28.277Z,23.30
2022-07-27T08:12:56.690Z,23.60
2022-07-27T08:15:29.939Z,24.10
2022-07-27T08:18:04.645Z,24.60
2022-07-27T08:20:31.917Z,24.80
2022-07-27T08:22:58.960Z,24.50
2022-07-27T08:25:26.117Z,24.60
2022-07-27T08:27:53.333Z,24.80
2022-07-27T08:30:23.851Z,25.00
2022-07-27T08:33:01.375Z,25.20
2022-07-27T08:35:30.090Z,25.50
2022-07-27T08:37:57.924Z,25.20
2022-07-27T08:40:44.967Z,25.50
2022-07-27T08:43:24.874Z,25.60
2022-07-27T08:46:01.655Z,25.70
2022-07-27T08:48:33.573Z,25.80
2022-07-27T08:51:00.800Z,26.20
2022-07-27T08:53:34.174Z,26.50
2022-07-27T08:56:18.890Z,26.40
2022-07-27T08:58:46.280Z,27.30
2022-07-27T09:01:13.819Z,27.20
2022-07-27T09:03:40.879Z,26.80
2022-07-27T09:06:07.943Z,26.30
2022-07-27T09:08:37.051Z,25.40
2022-07-27T09:11:15.938Z,25.40
2022-07-27T09:13:43.201Z,25.10
2022-07-27T09:16:20.432Z,24.70
2022-07-27T09:18:49.185Z,24.00
2022-07-27T09:21:21.060Z,23.80
2022-07-27T09:24:23.566Z,24.50
2022-07-27T09:27:03.910Z,24.50
2022-07-27T09:29:35.745Z,23.90
2022-07-27T09:32:15.773Z,23.90
2022-07-27T09:34:43.923Z,23.70
2022-07-27T09:37:11.222Z,23.60
2022-07-27T09:39:39.372Z,23.60
2022-07-27T09:42:08.269Z,23.30
2022-07-27T09:44:43.811Z,23.70
2022-07-27T09:47:27.593Z,23.50
2022-07-27T09:49:58.240Z,23.10
2022-07-27T09:52:30.543Z,23.20
2022-07-27T09:55:08.150Z,23.80
2022-07-27T09:57:56.564Z,24.40
2022-07-27T10:00:24.568Z,24.50
2022-07-27T10:02:53.086Z,24.60
2022-07-27T10:05:24.425Z,24.60
2022-07-27T10:07:54.054Z,24.90
2022-07-27T10:10:22.828Z,24.80
2022-07-27T10:12:54.834Z,25.10
2022-07-27T10:15:24.030Z,25.30
2022-07-27T10:18:06.797Z,25.10
2022-07-27T10:20:38.378Z,24.90
2022-07-27T10:23:07.406Z,24.90
2022-07-27T10:25:37.989Z,24.90
2022-07-27T10:28:16.633Z,25.20
2022-07-27T10:30:44.219Z,25.00
2022-07-27T10:33:47.696Z,25.20
2022-07-27T10:36:35.770Z,25.00
2022-07-27T10:39:06.356Z,25.10
2022-07-27T10:41:35.658Z,25.30
2022-07-27T10:44:28.722Z,25.60
2022-07-27T10:47:00.886Z,24.90
2022-07-27T10:49:31.017Z,25.10
2022-07-27T10:51:59.545Z,24.80
2022-07-27T10:54:32.607Z,25.30
2022-07-27T10:57:00.799Z,25.30
2022-07-27T11:02:42.280Z,24.80
2022-07-27T11:05:42.262Z,25.10
2022-07-27T11:10:48.841Z,25.20
2022-07-27T11:13:19.519Z,25.20
2022-07-27T11:16:23.065Z,25.40
2022-07-27T11:18:58.450Z,25.60
2022-07-27T11:21:37.532Z,25.70
2022-07-27T11:24:17.520Z,25.10
2022-07-27T11:26:51.119Z,24.90
2022-07-27T11:29:20.995Z,25.10
2022-07-27T11:31:57.703Z,25.10
2022-07-27T11:34:36.331Z,25.30
2022-07-27T11:37:11.980Z,24.50
2022-07-27T11:42:40.330Z,24.50
2022-07-27T11:45:07.946Z,24.40
2022-07-27T11:47:36.117Z,24.00
2022-07-27T11:50:07.961Z,24.70
2022-07-27T11:52:35.198Z,24.60
2022-07-27T11:55:02.803Z,24.70
2022-07-27T11:57:34.013Z,24.70
2022-07-27T12:00:02.300Z,25.40
2022-07-27T12:02:29.453Z,26.00
2022-07-27T12:05:02.372Z,26.00
2022-07-27T12:07:32.599Z,26.20
2022-07-27T12:10:02.747Z,26.10
2022-07-27T12:12:34.814Z,26.00
2022-07-27T12:15:44.039Z,26.30
2022-07-27T12:18:03.472Z,26.20
2022-07-27T12:20:35.371Z,25.90
2022-07-27T12:23:07.490Z,26.00
2022-07-27T12:25:35.524Z,26.30
2022-07-27T12:28:05.856Z,26.20
2022-07-27T12:30:35.735Z,26.40
2022-07-27T12:33:05.082Z,25.30
2022-07-27T12:35:46.663Z,24.80
2022-07-27T12:38:14.239Z,25.00
2022-07-27T12:40:49.879Z,25.10
2022-07-27T12:43:19.751Z,25.50
2022-07-27T12:45:48.239Z,24.20
2022-07-27T12:48:20.345Z,24.30
2022-07-27T12:50:57.114Z,24.30
2022-07-27T12:53:24.126Z,24.20
2022-07-27T12:55:51.340Z,24.30
2022-07-27T12:58:18.297Z,24.00
2022-07-27T13:00:45.567Z,23.70
2022-07-27T13:03:12.666Z,23.20
2022-07-27T13:05:40.336Z,23.40
2022-07-27T13:08:09.508Z,23.60
2022-07-27T13:10:37.276Z,24.00
2022-07-27T13:13:06.367Z,24.50
2022-07-27T13:15:34.048Z,24.00
2022-07-27T13:18:01.504Z,24.30
2022-07-27T13:20:28.703Z,23.80
2022-07-27T13:22:55.621Z,23.20
2022-07-27T13:25:22.767Z,22.70
2022-07-27T13:27:50.441Z,22.50
2022-07-27T13:30:18.908Z,22.80
2022-07-27T13:32:47.141Z,23.60
2022-07-27T13:35:14.941Z,24.20
2022-07-27T13:37:42.350Z,24.70
2022-07-27T13:40:10.051Z,24.70
2022-07-27T13:42:37.646Z,24.90
2022-07-27T13:45:10.243Z,24.70
2022-07-27T13:47:39.107Z,24.70
2022-07-27T13:50:16.725Z,25.30
2022-07-27T13:52:46.098Z,25.30
2022-07-27T13:55:14.742Z,25.10
2022-07-27T13:57:41.896Z,25.10
2022-07-27T14:00:09.551Z,24.90
2022-07-27T14:02:36.707Z,24.60
2022-07-27T14:05:06.101Z,24.50
2022-07-27T14:07:33.986Z,24.30
2022-07-27T14:10:19.480Z,24.00
2022-07-27T14:12:46.511Z,24.20
2022-07-27T14:15:13.661Z,23.60
2022-07-27T14:17:40.705Z,23.80
2022-07-27T14:20:08.897Z,24.20
2022-07-27T14:22:35.893Z,23.40
2022-07-27T14:25:03.002Z,22.70
2022-07-27T14:27:33.745Z,22.30
2022-07-27T14:30:10.165Z,21.80
2022-07-27T14:32:37.471Z,21.70
2022-07-27T14:35:06.204Z,21.40
2022-07-27T14:37:34.417Z,21.90
2022-07-27T14:40:02.008Z,22.30
2022-07-27T14:42:29.024Z,22.40
2022-07-27T14:44:56.712Z,22.40
2022-07-27T14:47:23.840Z,22.40
2022-07-27T14:49:51.017Z,22.60
2022-07-27T14:52:18.846Z,22.80
2022-07-27T14:54:47.678Z,22.60
2022-07-27T14:57:15.455Z,22.90
2022-07-27T14:59:43.604Z,22.80
2022-07-27T15:02:11.298Z,23.30
2022-07-27T15:04:38.387Z,23.30
2022-07-27T15:07:05.359Z,23.40
2022-07-27T15:09:32.556Z,23.20
2022-07-27T15:12:00.610Z,23.20
2022-07-27T15:14:28.047Z,23.30
2022-07-27T15:16:55.722Z,22.90
2022-07-27T15:19:23.264Z,22.90
2022-07-27T15:21:50.842Z,22.70
2022-07-27T15:24:17.812Z,22.40
2022-07-27T15:26:45.010Z,22.50
2022-07-27T15:29:14.810Z,23.10
2022-07-27T15:31:43.351Z,22.90
2022-07-27T15:34:10.693Z,22.70
2022-07-27T15:36:44.684Z,22.70
2022-07-27T15:39:13.954Z,22.50
2022-07-27T15:41:41.261Z,22.70
2022-07-27T15:44:08.415Z,22.50
2022-07-27T15:46:35.526Z,22.40
2022-07-27T15:49:02.935Z,22.50
2022-07-27T15:51:30.097Z,22.50
2022-07-27T15:53:57.481Z,22.50
2022-07-27T15:56:25.013Z,22.60
2022-07-27T15:58:52.206Z,22.60
2022-07-27T16:01:20.895Z,22.60
2022-07-27T16:03:49.204Z,23.10
2022-07-27T16:06:19.237Z,22.90
2022-07-27T16:08:47.256Z,22.70
2022-07-27T16:11:14.414Z,22.70
2022-07-27T16:13:42.198Z,22.90
2022-07-27T16:16:27.807Z,23.10
2022-07-27T16:18:56.933Z,22.80
2022-07-27T16:21:25.177Z,23.00
2022-07-27T16:23:54.338Z,22.50
2022-07-27T16:26:22.569Z,22.80
2022-07-27T16:28:51.561Z,22.70
2022-07-27T16:31:20.553Z,22.50
2022-07-27T16:33:49.651Z,22.50
2022-07-27T16:36:22.995Z,22.50
2022-07-27T16:38:52.635Z,23.20
2022-07-27T16:41:21.632Z,23.30
2022-07-27T16:43:49.119Z,23.40
2022-07-27T16:46:16.315Z,23.30
2022-07-27T16:48:43.780Z,23.10
2022-07-27T16:51:15.228Z,23.60
2022-07-27T16:53:45.372Z,23.70
2022-07-27T16:56:12.582Z,23.70
2022-07-27T16:58:39.800Z,23.80
2022-07-27T17:01:07.867Z,23.60
2022-07-27T17:03:34.922Z,23.40
2022-07-27T17:06:06.055Z,23.30
2022-07-27T17:08:34.760Z,23.60
2022-07-27T17:11:02.461Z,23.30
2022-07-27T17:13:33.830Z,23.20
2022-07-27T17:16:05.967Z,23.30
2022-07-27T17:18:39.395Z,23.40
2022-07-27T17:21:09.617Z,23.50
2022-07-27T17:23:38.406Z,23.40
2022-07-27T17:26:07.659Z,23.30
2022-07-27T17:28:39.396Z,23.30
2022-07-27T17:31:10.194Z,23.50
2022-07-27T17:33:38.644Z,23.90
2022-07-27T17:36:12.093Z,23.90
2022-07-27T17:38:42.460Z,23.80
2022-07-27T17:41:09.470Z,23.80
2022-07-27T17:43:38.856Z,23.90
2022-07-27T17:46:06.662Z,24.00
2022-07-27T17:48:35.559Z,23.90
2022-07-27T17:51:02.971Z,24.10
2022-07-27T17:53:30.075Z,24.10
2022-07-27T17:55:57.158Z,24.80
2022-07-27T17:58:28.030Z,24.40
2022-07-27T18:00:57.040Z,24.60
2022-07-27T18:03:24.021Z,24.20
2022-07-27T18:05:50.994Z,24.10
2022-07-27T18:08:18.092Z,24.10
2022-07-27T18:10:45.071Z,24.00
2022-07-27T18:13:12.464Z,24.10
2022-07-27T18:15:48.638Z,24.10
2022-07-27T18:18:18.130Z,23.80
2022-07-27T18:20:46.320Z,24.10
2022-07-27T18:23:14.274Z,24.00
2022-07-27T18:25:41.747Z,23.90
2022-07-27T18:28:08.751Z,23.90
2022-07-27T18:30:36.008Z,24.20
2022-07-27T18:33:03.182Z,24.40
2022-07-27T18:35:30.242Z,24.60
2022-07-27T18:37:57.322Z,24.30
2022-07-27T18:40:24.411Z,24.00
2022-07-27T18:42:51.412Z,23.80
2022-07-27T18:45:19.696Z,23.90
2022-07-27T18:47:49.505Z,23.90
2022-07-27T18:50:16.946Z,23.80
2022-07-27T18:52:44.033Z,23.80
2022-07-27T18:55:11.090Z,23.60
2022-07-27T18:57:38.224Z,23.50
2022-07-27T19:00:06.167Z,23.40
2022-07-27T19:02:38.814Z,23.60
2022-07-27T19:05:07.491Z,23.60
2022-07-27T19:07:37.318Z,23.80
2022-07-27T19:10:07.692Z,24.10
2022-07-27T19:12:34.838Z,24.60
2022-07-27T19:15:01.972Z,24.30
2022-07-27T19:17:28.927Z,24.20
2022-07-27T19:19:55.961Z,24.60
2022-07-27T19:22:22.977Z,24.60
2022-07-27T19:24:54.474Z,24.80
2022-07-27T19:27:22.073Z,24.50
2022-07-27T19:29:49.036Z,24.50
2022-07-27T19:32:16.957Z,24.70
2022-07-27T19:34:44.147Z,24.80
2022-07-27T19:37:11.590Z,25.00
2022-07-27T19:39:58.493Z,25.60
2022-07-27T19:42:25.885Z,25.00
2022-07-27T19:44:53.035Z,24.60
2022-07-27T19:47:20.634Z,24.50
2022-07-27T19:49:47.936Z,24.70
2022-07-27T19:52:15.370Z,24.70
2022-07-27T19:54:42.410Z,24.30
2022-07-27T19:57:11.628Z,24.40
2022-07-27T19:59:54.973Z,24.30
2022-07-27T20:02:23.166Z,24.30
2022-07-27T20:04:50.194Z,24.40
2022-07-27T20:07:17.333Z,24.30
2022-07-27T20:09:44.379Z,24.20
2022-07-27T20:12:11.472Z,24.00
2022-07-27T20:14:38.475Z,24.30
2022-07-27T20:17:06.483Z,24.20
2022-07-27T20:19:33.758Z,24.50
2022-07-27T20:22:01.650Z,24.40
2022-07-27T20:24:29.519Z,24.20
2022-07-27T20:26:57.290Z,24.30
2022-07-27T20:29:24.492Z,24.20
2022-07-27T20:31:52.192Z,24.40
2022-07-27T20:34:22.925Z,24.50
2022-07-27T20:36:50.246Z,24.40
2022-07-27T20:39:17.860Z,24.40
2022-07-27T20:41:45.267Z,24.40
2022-07-27T20:44:12.727Z,24.30
2022-07-27T20:46:39.677Z,24.50
2022-07-27T20:49:06.812Z,24.90
2022-07-27T20:51:34.653Z,25.40
2022-07-27T20:54:02.373Z,25.60
2022-07-27T20:56:29.375Z,25.20
2022-07-27T20:58:56.420Z,25.00
2022-07-27T21:01:23.486Z,25.00
2022-07-27T21:03:50.567Z,24.60
2022-07-27T21:06:17.547Z,24.80
2022-07-27T21:08:46.634Z,24.50
2022-07-27T21:11:14.190Z,24.40
2022-07-27T21:13:41.612Z,24.50
2022-07-27T21:16:08.741Z,24.70
2022-07-27T21:18:35.925Z,24.70
2022-07-27T21:21:03.335Z,24.80
2022-07-27T21:23:51.611Z,24.90
2022-07-27T21:26:18.583Z,24.90
2022-07-27T21:28:46.123Z,24.60
2022-07-27T21:31:13.074Z,24.70
2022-07-27T21:33:40.301Z,24.80
2022-07-27T21:36:07.908Z,25.20
2022-07-27T21:38:35.232Z,25.10
2022-07-27T21:41:02.388Z,25.40
2022-07-27T21:43:29.320Z,25.40
2022-07-27T21:45:56.411Z,25.30
2022-07-27T21:48:23.479Z,25.60
2022-07-27T21:50:50.460Z,25.80
2022-07-27T21:53:17.470Z,25.30
2022-07-27T21:55:44.467Z,25.30
2022-07-27T21:58:12.979Z,25.00
2022-07-27T22:00:40.012Z,24.90
2022-07-27T22:03:07.996Z,24.70
2022-07-27T22:05:35.705Z,24.70
2022-07-27T22:08:02.921Z,24.60
2022-07-27T22:10:31.348Z,24.40
2022-07-27T22:12:58.840Z,24.20
2022-07-27T22:15:26.412Z,24.90
2022-07-27T22:17:53.783Z,25.20
2022-07-27T22:20:22.134Z,25.30
2022-07-27T22:22:50.014Z,25.70
2022-07-27T22:25:17.727Z,25.80
2022-07-27T22:27:44.974Z,25.50
2022-07-27T22:30:12.084Z,25.10
2022-07-27T22:32:39.098Z,25.40
2022-07-27T22:35:06.794Z,25.60
2022-07-27T22:37:33.835Z,25.50
2022-07-27T22:40:01.124Z,25.40
2022-07-27T22:42:28.422Z,25.40
2022-07-27T22:44:55.506Z,25.50
2022-07-27T22:47:22.598Z,25.70
2022-07-27T22:49:49.689Z,25.70
2022-07-27T22:52:17.035Z,25.70
2022-07-27T22:54:45.433Z,26.10
2022-07-27T22:57:12.479Z,26.30
2022-07-27T22:59:39.742Z,25.90
2022-07-27T23:02:06.884Z,25.80
2022-07-27T23:04:34.086Z,25.90
2022-07-27T23:07:01.192Z,25.70
2022-07-27T23:09:28.254Z,25.90
2022-07-27T23:11:55.313Z,25.90
2022-07-27T23:14:26.489Z,25.60
2022-07-27T23:16:53.415Z,25.00
2022-07-27T23:19:20.460Z,25.40
2022-07-27T23:21:47.457Z,25.40
2022-07-27T23:24:15.381Z,25.60
2022-07-27T23:26:43.153Z,25.50
2022-07-27T23:29:10.303Z,25.30
2022-07-27T23:31:37.517Z,25.20
2022-07-27T23:34:04.639Z,25.50
2022-07-27T23:36:31.829Z,25.80
2022-07-27T23:38:58.961Z,25.80
2022-07-27T23:41:27.112Z,25.80
2022-07-27T23:43:54.139Z,26.20
2022-07-27T23:46:21.175Z,26.10
2022-07-27T23:48:48.378Z,26.20
2022-07-27T23:51:19.519Z,26.40
2022-07-27T23:53:47.758Z,26.80
2022-07-27T23:56:15.899Z,27.00
2022-07-27T23:58:43.613Z,27.50
